Time;durP1;ratioP1;P1;durP2;ratioP2;P2;SDS_P1;SDS_P2;PMS_P1;PMS_P2;Temp;Humidity;BMP_temperature;BMP_pressure;BME280_temperature;BME280_humidity;BME280_pressure;Samples;Min_cycle;Max_cycle;Signal;HPM_P1;HPM_P2
2023/01/16 00:00:37;;;;;;;;;;;;;;;5.47;100.00;96941.19;5101142;28;19924;-74
2023/01/16 00:03:07;;;;;;;;;;;;;;;5.37;100.00;96943.75;5099759;28;19956;-74
2023/01/16 00:05:33;;;;;;;;;;;;;;;5.22;100.00;96939.13;5134324;27;19924;-72
2023/01/16 00:08:01;;;;;;;;;;;;;;;5.44;100.00;96939.84;5120902;28;19979;-73
2023/01/16 00:10:27;;;;;;;;;;;;;;;5.24;100.00;96939.66;5120323;28;19920;-73
2023/01/16 00:12:53;;;;;;;;;;;;;;;5.00;100.00;96937.59;5117597;28;19962;-71
2023/01/16 00:15:20;;;;;;;;;;;;;;;4.97;100.00;96925.69;5098814;28;19924;-72
2023/01/16 00:17:48;;;;;;;;;;;;;;;5.21;100.00;96926.13;5120061;28;19920;-72
2023/01/16 00:20:14;;;;;;;;;;;;;;;5.35;100.00;96906.91;5120644;28;19969;-72
2023/01/16 00:22:41;;;;;;;;;;;;;;;5.22;100.00;96915.31;5100038;28;20001;-72
2023/01/16 00:25:09;;;;;;;;;;;;;;;4.89;100.00;96916.34;5117069;28;20644;-72
2023/01/16 00:27:35;;;;;;;;;;;;;;;4.97;100.00;96907.16;5119223;28;19924;-72
2023/01/16 00:30:02;;;;;;;;;;;;;;;5.03;100.00;96910.66;5120665;28;19924;-72
2023/01/16 00:32:28;;;;;;;;;;;;;;;4.72;100.00;96909.56;5119935;28;19923;-72
2023/01/16 00:34:55;;;;;;;;;;;;;;;4.51;100.00;96905.94;5124788;27;19934;-72
2023/01/16 00:37:21;;;;;;;;;;;;;;;4.59;100.00;96904.66;5106658;28;19956;-72
2023/01/16 00:39:48;;;;;;;;;;;;;;;4.66;100.00;96903.44;5099029;28;20504;-72
2023/01/16 00:42:16;;;;;;;;;;;;;;;4.65;100.00;96901.03;5116857;28;19920;-73
2023/01/16 00:44:42;;;;;;;;;;;;;;;4.61;100.00;96900.72;5119731;28;19931;-72
2023/01/16 00:47:08;;;;;;;;;;;;;;;4.45;100.00;96906.13;5102044;28;19928;-72
2023/01/16 00:49:35;;;;;;;;;;;;;;;4.45;100.00;96900.84;5118683;28;20073;-72
2023/01/16 00:52:01;;;;;;;;;;;;;;;4.27;100.00;96900.09;5116771;28;19924;-72
2023/01/16 00:54:29;;;;;;;;;;;;;;;4.46;100.00;96897.13;5117278;28;19920;-72
2023/01/16 00:56:56;;;;;;;;;;;;;;;4.74;100.00;96899.53;5120488;28;19924;-72
2023/01/16 00:59:23;;;;;;;;;;;;;;;5.03;100.00;96900.88;5120779;28;20248;-72
2023/01/16 01:01:50;;;;;;;;;;;;;;;4.98;100.00;96898.19;5109069;28;19960;-72
2023/01/16 01:04:16;;;;;;;;;;;;;;;4.65;100.00;96893.09;5099128;28;20386;-72
2023/01/16 01:06:43;;;;;;;;;;;;;;;4.58;100.00;96895.16;5114431;28;19989;-73
2023/01/16 01:09:09;;;;;;;;;;;;;;;4.50;100.00;96895.59;5115982;28;19934;-73
2023/01/16 01:11:35;;;;;;;;;;;;;;;4.47;100.00;96893.44;5102411;28;20201;-73
2023/01/16 01:14:02;;;;;;;;;;;;;;;4.12;100.00;96891.19;5099546;28;19960;-72
2023/01/16 01:16:30;;;;;;;;;;;;;;;3.99;100.00;96881.78;5117368;28;19999;-73
2023/01/16 01:18:56;;;;;;;;;;;;;;;4.25;100.00;96880.25;5119993;28;19924;-73
2023/01/16 01:21:22;;;;;;;;;;;;;;;4.41;100.00;96876.75;5119727;28;19923;-73
2023/01/16 01:23:49;;;;;;;;;;;;;;;4.25;100.00;96888.97;5098144;28;19928;-73
2023/01/16 01:26:16;;;;;;;;;;;;;;;4.23;100.00;96882.34;5116238;28;19930;-72
2023/01/16 01:28:43;;;;;;;;;;;;;;;4.09;100.00;96874.00;5118636;28;19928;-72
2023/01/16 01:31:11;;;;;;;;;;;;;;;3.83;100.00;96876.59;5119549;28;19927;-72
2023/01/16 01:33:39;;;;;;;;;;;;;;;3.50;100.00;96880.09;5117091;28;19949;-72
2023/01/16 01:36:07;;;;;;;;;;;;;;;3.61;100.00;96873.94;5129367;27;19924;-71
2023/01/16 01:38:33;;;;;;;;;;;;;;;3.60;100.00;96867.03;5117940;28;20458;-71
2023/01/16 01:41:00;;;;;;;;;;;;;;;3.44;100.00;96854.66;5097636;28;19928;-71
2023/01/16 01:43:39;;;;;;;;;;;;;;;3.48;100.00;96845.22;5116673;28;19928;-71
2023/01/16 01:46:05;;;;;;;;;;;;;;;3.83;100.00;96850.97;5119335;28;19967;-72
2023/01/16 01:48:37;;;;;;;;;;;;;;;3.51;100.00;96853.47;5099769;28;19924;-71
2023/01/16 01:51:07;;;;;;;;;;;;;;;3.36;100.00;96837.44;5115686;28;19974;-72
2023/01/16 01:53:36;;;;;;;;;;;;;;;3.36;100.00;96829.50;5116988;28;19928;-72
2023/01/16 01:56:04;;;;;;;;;;;;;;;3.52;100.00;96827.88;5118933;28;19987;-72
2023/01/16 01:58:31;;;;;;;;;;;;;;;3.63;100.00;96827.75;5099521;28;19930;-72
2023/01/16 02:01:00;;;;;;;;;;;;;;;3.72;100.00;96822.84;5096960;28;19920;-72
2023/01/16 02:03:30;;;;;;;;;;;;;;;3.66;100.00;96813.25;5115664;28;19928;-74
2023/01/16 02:05:58;;;;;;;;;;;;;;;3.46;100.00;96802.47;5133668;27;19923;-72
2023/01/16 02:08:30;;;;;;;;;;;;;;;3.48;100.00;96789.81;5118087;28;19974;-72
2023/01/16 02:11:00;;;;;;;;;;;;;;;3.22;100.00;96802.66;5096744;28;19924;-72
2023/01/16 02:13:27;;;;;;;;;;;;;;;3.41;100.00;96795.28;5115658;28;19930;-72
2023/01/16 02:21:37;;;;;;;;;;;;;;;3.24;100.00;96774.22;5114465;28;19931;-72
2023/01/16 02:24:16;;;;;;;;;;;;;;;3.36;100.00;96774.09;5118355;28;19923;-72
2023/01/16 02:27:00;;;;;;;;;;;;;;;3.62;100.00;96765.44;5097287;28;20286;-72
2023/01/16 02:29:37;;;;;;;;;;;;;;;3.65;100.00;96764.94;5114712;28;19928;-72
2023/01/16 02:32:10;;;;;;;;;;;;;;;3.61;100.00;96758.59;5099601;28;19993;-72
2023/01/16 02:34:45;;;;;;;;;;;;;;;3.40;100.00;96750.66;5118194;27;19947;-72
2023/01/16 02:37:15;;;;;;;;;;;;;;;3.16;100.00;96745.59;5124850;27;19924;-72
2023/01/16 02:39:45;;;;;;;;;;;;;;;3.01;100.00;96740.13;5098691;28;19961;-73
2023/01/16 02:42:15;;;;;;;;;;;;;;;2.91;100.00;96729.44;5118211;28;19923;-72
2023/01/16 02:44:49;;;;;;;;;;;;;;;2.83;100.00;96736.97;5115763;28;19936;-73
2023/01/16 02:47:22;;;;;;;;;;;;;;;2.79;100.00;96728.75;5114869;28;19959;-72
2023/01/16 02:49:52;;;;;;;;;;;;;;;2.67;100.00;96728.03;5106088;28;19924;-75
2023/01/16 02:52:23;;;;;;;;;;;;;;;2.62;100.00;96725.34;5088161;28;19953;-72
2023/01/16 02:54:54;;;;;;;;;;;;;;;2.55;100.00;96714.16;5106041;28;19967;-72
2023/01/16 02:57:22;;;;;;;;;;;;;;;2.64;100.00;96715.34;5095828;28;19924;-70
2023/01/16 02:59:49;;;;;;;;;;;;;;;2.58;100.00;96717.13;5105903;28;19920;-72
2023/01/16 03:02:16;;;;;;;;;;;;;;;2.57;100.00;96710.25;5096100;28;19983;-72
2023/01/16 03:04:44;;;;;;;;;;;;;;;2.83;100.00;96687.69;5109595;28;19967;-72
2023/01/16 03:07:20;;;;;;;;;;;;;;;2.80;100.00;96697.91;5124764;27;19924;-73
2023/01/16 03:09:50;;;;;;;;;;;;;;;2.91;100.00;96700.44;5117353;28;19963;-72
2023/01/16 03:12:28;;;;;;;;;;;;;;;2.99;100.00;96678.13;5099222;28;19935;-72
2023/01/16 03:14:57;;;;;;;;;;;;;;;3.08;100.00;96666.13;5114354;28;19995;-72
2023/01/16 03:17:35;;;;;;;;;;;;;;;2.92;100.00;96666.97;5114261;28;19987;-73
2023/01/16 03:20:12;;;;;;;;;;;;;;;2.92;100.00;96667.75;5117849;28;19955;-72
2023/01/16 03:22:40;;;;;;;;;;;;;;;2.91;100.00;96658.25;5115244;28;19924;-72
2023/01/16 03:25:18;;;;;;;;;;;;;;;2.89;100.00;96652.44;5096225;28;19964;-72
2023/01/16 03:27:50;;;;;;;;;;;;;;;2.82;100.00;96649.16;5117179;28;19954;-72
2023/01/16 03:30:23;;;;;;;;;;;;;;;2.88;100.00;96640.28;5117384;28;19930;-72
2023/01/16 03:32:54;;;;;;;;;;;;;;;2.72;100.00;96638.50;5105889;28;19927;-72
2023/01/16 03:35:23;;;;;;;;;;;;;;;2.66;100.00;96628.94;5116612;28;19960;-72
2023/01/16 03:37:51;;;;;;;;;;;;;;;2.65;100.00;96635.25;5109379;28;19935;-72
2023/01/16 03:40:20;;;;;;;;;;;;;;;2.96;100.00;96628.53;5091226;28;20008;-72
2023/01/16 03:42:50;;;;;;;;;;;;;;;2.87;100.00;96627.34;5099311;28;19981;-72
2023/01/16 03:45:19;;;;;;;;;;;;;;;2.81;100.00;96609.88;5108941;28;19935;-72
2023/01/16 03:47:49;;;;;;;;;;;;;;;2.99;100.00;96618.28;5109032;28;19924;-72
2023/01/16 03:50:18;;;;;;;;;;;;;;;2.92;100.00;96617.66;5109143;28;19947;-72
2023/01/16 03:52:47;;;;;;;;;;;;;;;3.04;100.00;96604.34;5102181;28;20116;-73
2023/01/16 03:55:17;;;;;;;;;;;;;;;3.03;100.00;96598.28;5120880;28;19924;-72
2023/01/16 03:57:46;;;;;;;;;;;;;;;2.69;100.00;96586.28;5117772;28;20048;-73
2023/01/16 04:00:13;;;;;;;;;;;;;;;2.73;100.00;96587.38;5117248;28;19972;-72
2023/01/16 04:02:43;;;;;;;;;;;;;;;2.69;100.00;96575.75;5119540;28;20016;-72
2023/01/16 04:05:12;;;;;;;;;;;;;;;2.80;100.00;96577.44;5120560;28;19963;-72
2023/01/16 04:07:44;;;;;;;;;;;;;;;2.67;100.00;96570.72;5112108;28;19924;-72
2023/01/16 04:10:11;;;;;;;;;;;;;;;2.63;100.00;96571.47;5120894;28;19980;-72
2023/01/16 04:12:40;;;;;;;;;;;;;;;2.40;100.00;96555.88;5118642;28;19920;-72
2023/01/16 04:15:08;;;;;;;;;;;;;;;2.28;100.00;96565.72;5117355;28;19955;-72
2023/01/16 04:17:35;;;;;;;;;;;;;;;2.16;100.00;96556.09;5100295;28;19924;-73
2023/01/16 04:20:02;;;;;;;;;;;;;;;2.14;100.00;96546.81;5120601;28;19924;-73
2023/01/16 04:22:29;;;;;;;;;;;;;;;2.14;100.00;96542.34;5101521;28;19951;-72
2023/01/16 04:24:59;;;;;;;;;;;;;;;2.17;100.00;96535.81;5117150;28;20360;-72
2023/01/16 04:27:25;;;;;;;;;;;;;;;2.12;100.00;96526.00;5116987;28;19950;-72
2023/01/16 04:29:52;;;;;;;;;;;;;;;1.98;100.00;96516.84;5120025;28;19991;-72
2023/01/16 04:32:18;;;;;;;;;;;;;;;1.96;100.00;96518.94;5101988;28;19924;-73
2023/01/16 04:34:46;;;;;;;;;;;;;;;1.87;100.00;96501.97;5118843;28;20647;-71
2023/01/16 04:37:13;;;;;;;;;;;;;;;1.96;100.00;96497.88;5113247;28;19920;-72
2023/01/16 04:39:40;;;;;;;;;;;;;;;1.99;100.00;96492.13;5100307;28;19987;-72
2023/01/16 04:42:08;;;;;;;;;;;;;;;1.96;100.00;96476.81;5119912;28;19924;-72
2023/01/16 04:44:34;;;;;;;;;;;;;;;2.03;100.00;96479.28;5117802;28;19931;-72
2023/01/16 04:47:01;;;;;;;;;;;;;;;1.92;100.00;96469.66;5116071;28;19974;-72
2023/01/16 04:49:27;;;;;;;;;;;;;;;1.91;100.00;96463.59;5098320;28;19943;-72
2023/01/16 04:51:54;;;;;;;;;;;;;;;1.85;100.00;96466.41;5101739;28;19924;-72
2023/01/16 04:54:20;;;;;;;;;;;;;;;1.73;100.00;96466.50;5119899;28;19924;-72
2023/01/16 04:56:47;;;;;;;;;;;;;;;1.57;100.00;96459.44;5116460;28;19924;-73
2023/01/16 04:59:15;;;;;;;;;;;;;;;1.60;100.00;96456.31;5116387;28;19955;-73
2023/01/16 05:01:42;;;;;;;;;;;;;;;1.99;100.00;96455.28;5118610;28;19924;-73
2023/01/16 05:04:09;;;;;;;;;;;;;;;2.22;100.00;96448.19;5101373;28;19955;-73
2023/01/16 05:06:36;;;;;;;;;;;;;;;3.34;100.00;96453.50;5098516;28;19978;-73
2023/01/16 05:09:03;;;;;;;;;;;;;;;2.75;100.00;96442.97;5115769;28;19943;-73
2023/01/16 05:11:30;;;;;;;;;;;;;;;2.13;100.00;96439.91;5116576;28;19950;-71
2023/01/16 05:13:56;;;;;;;;;;;;;;;1.89;100.00;96444.59;5101120;28;19920;-72
2023/01/16 05:16:24;;;;;;;;;;;;;;;1.99;100.00;96444.75;5119298;28;19995;-72
2023/01/16 05:18:50;;;;;;;;;;;;;;;2.01;100.00;96441.88;5107378;28;20349;-72
2023/01/16 05:21:17;;;;;;;;;;;;;;;1.76;100.00;96426.56;5089262;28;19925;-72
2023/01/16 05:23:43;;;;;;;;;;;;;;;1.87;100.00;96438.00;5106879;28;19960;-72
2023/01/16 05:26:10;;;;;;;;;;;;;;;1.95;100.00;96429.69;5106973;28;19924;-72
2023/01/16 05:28:36;;;;;;;;;;;;;;;1.77;100.00;96428.13;5107244;28;19945;-72
2023/01/16 05:31:03;;;;;;;;;;;;;;;1.74;100.00;96418.09;5107223;28;19958;-72
2023/01/16 05:33:31;;;;;;;;;;;;;;;1.92;100.00;96404.63;5106922;28;19925;-72
2023/01/16 05:35:57;;;;;;;;;;;;;;;2.21;100.00;96405.25;5114835;28;19987;-72
2023/01/16 05:38:24;;;;;;;;;;;;;;;2.18;100.00;96409.16;5097675;28;20022;-72
2023/01/16 05:40:50;;;;;;;;;;;;;;;2.06;100.00;96397.16;5115867;28;19935;-72
2023/01/16 05:43:17;;;;;;;;;;;;;;;1.89;100.00;96391.19;5115569;28;20279;-73
2023/01/16 05:45:43;;;;;;;;;;;;;;;1.71;100.00;96386.19;5118182;28;19920;-73
2023/01/16 05:48:09;;;;;;;;;;;;;;;1.61;100.00;96382.41;5100263;28;20373;-72
2023/01/16 05:50:37;;;;;;;;;;;;;;;1.66;100.00;96383.50;5098331;28;19998;-72
2023/01/16 05:53:04;;;;;;;;;;;;;;;1.56;100.00;96387.59;5097195;28;19920;-73
2023/01/16 05:55:30;;;;;;;;;;;;;;;1.49;100.00;96381.72;5115385;28;19939;-72
2023/01/16 05:57:57;;;;;;;;;;;;;;;1.51;100.00;96374.38;5118526;28;19924;-72
2023/01/16 06:00:23;;;;;;;;;;;;;;;1.37;100.00;96361.81;5118504;28;19924;-72
2023/01/16 06:02:50;;;;;;;;;;;;;;;1.46;100.00;96365.59;5114747;28;19924;-72
2023/01/16 06:05:16;;;;;;;;;;;;;;;1.45;100.00;96351.69;5102992;28;19935;-72
2023/01/16 06:07:44;;;;;;;;;;;;;;;1.33;100.00;96361.50;5091840;28;19954;-72
2023/01/16 06:10:11;;;;;;;;;;;;;;;1.60;100.00;96357.16;5118206;28;19950;-72
2023/01/16 06:12:37;;;;;;;;;;;;;;;1.48;100.00;96358.28;5116087;28;19924;-72
2023/01/16 06:15:04;;;;;;;;;;;;;;;1.53;100.00;96355.72;5115438;28;19927;-72
2023/01/16 06:17:30;;;;;;;;;;;;;;;1.43;100.00;96350.31;5116322;28;19931;-72
2023/01/16 06:19:59;;;;;;;;;;;;;;;1.34;100.00;96343.88;5100898;28;19987;-72
2023/01/16 06:22:26;;;;;;;;;;;;;;;1.15;100.00;96343.34;5100475;28;19951;-72
2023/01/16 06:24:53;;;;;;;;;;;;;;;1.15;100.00;96327.59;5097290;28;19928;-71
2023/01/16 06:27:20;;;;;;;;;;;;;;;1.12;100.00;96327.28;5115139;28;19923;-71
2023/01/16 06:29:46;;;;;;;;;;;;;;;1.23;100.00;96331.66;5118481;28;19953;-72
2023/01/16 06:32:13;;;;;;;;;;;;;;;1.17;100.00;96324.72;5119260;28;19924;-72
2023/01/16 06:34:39;;;;;;;;;;;;;;;1.24;100.00;96315.63;5119700;28;20020;-72
2023/01/16 06:37:05;;;;;;;;;;;;;;;1.18;100.00;96315.81;5096457;28;19959;-71
2023/01/16 06:39:32;;;;;;;;;;;;;;;1.13;100.00;96302.59;5099665;28;19947;-72
2023/01/16 06:42:00;;;;;;;;;;;;;;;1.11;100.00;96305.47;5100931;28;19995;-72
2023/01/16 06:44:26;;;;;;;;;;;;;;;1.10;100.00;96306.50;5118905;28;19959;-71
2023/01/16 06:46:53;;;;;;;;;;;;;;;1.13;100.00;96292.88;5115367;28;19920;-71
2023/01/16 06:49:19;;;;;;;;;;;;;;;1.17;100.00;96293.19;5115385;28;19925;-72
2023/01/16 06:51:45;;;;;;;;;;;;;;;1.14;100.00;96298.94;5117587;28;19924;-72
2023/01/16 06:54:12;;;;;;;;;;;;;;;1.14;100.00;96293.66;5118438;28;19923;-72
2023/01/16 06:56:38;;;;;;;;;;;;;;;1.17;100.00;96272.16;5097824;28;19926;-72
2023/01/16 06:59:06;;;;;;;;;;;;;;;1.05;100.00;96262.53;5096463;28;19951;-72
2023/01/16 07:01:32;;;;;;;;;;;;;;;1.14;100.00;96270.00;5115971;28;19928;-72
2023/01/16 07:03:59;;;;;;;;;;;;;;;1.04;100.00;96253.06;5117551;28;19958;-72
2023/01/16 07:06:25;;;;;;;;;;;;;;;1.02;100.00;96264.88;5116658;28;20295;-72
2023/01/16 07:08:53;;;;;;;;;;;;;;;1.06;100.00;96255.44;5118169;28;19950;-73
2023/01/16 07:11:20;;;;;;;;;;;;;;;1.06;100.00;96250.19;5100440;28;19935;-72
2023/01/16 07:13:46;;;;;;;;;;;;;;;1.11;100.00;96247.63;5103192;28;19947;-73
2023/01/16 07:24:30;;;;;;;;;;;;;;;0.98;100.00;96233.00;5136643;27;19934;-73
2023/01/16 07:26:59;;;;;;;;;;;;;;;1.05;100.00;96227.59;5118233;28;19974;-71
2023/01/16 07:29:26;;;;;;;;;;;;;;;1.07;100.00;96218.41;5099937;28;19925;-71
2023/01/16 07:31:53;;;;;;;;;;;;;;;1.12;100.00;96217.66;5121490;28;19965;-72
2023/01/16 07:34:22;;;;;;;;;;;;;;;1.03;100.00;96214.66;5121709;28;19999;-72
2023/01/16 07:36:48;;;;;;;;;;;;;;;1.10;100.00;96209.25;5098642;28;19987;-72
2023/01/16 07:39:14;;;;;;;;;;;;;;;1.17;100.00;96199.34;5118656;28;19978;-73
2023/01/16 07:41:40;;;;;;;;;;;;;;;1.24;100.00;96201.78;5102684;28;19955;-72
2023/01/16 07:44:07;;;;;;;;;;;;;;;1.38;100.00;96184.59;5121771;28;19959;-71
2023/01/16 07:46:33;;;;;;;;;;;;;;;1.36;100.00;96184.81;5120468;28;20037;-72
2023/01/16 07:49:01;;;;;;;;;;;;;;;1.35;100.00;96177.19;5099847;28;19924;-73
2023/01/16 07:51:28;;;;;;;;;;;;;;;1.42;100.00;96177.78;5119378;28;19931;-73
2023/01/16 07:53:54;;;;;;;;;;;;;;;1.36;100.00;96170.91;5121776;28;19923;-72
2023/01/16 07:56:21;;;;;;;;;;;;;;;1.33;100.00;96161.63;5121675;28;19985;-72
2023/01/16 07:58:49;;;;;;;;;;;;;;;1.34;100.00;96147.47;5118535;28;19924;-72
2023/01/16 08:01:15;;;;;;;;;;;;;;;1.35;100.00;96148.25;5099731;28;19928;-72
2023/01/16 08:03:42;;;;;;;;;;;;;;;1.42;100.00;96133.88;5102405;28;19931;-72
2023/01/16 08:06:11;;;;;;;;;;;;;;;1.41;100.00;96140.19;5123118;28;19987;-72
2023/01/16 08:08:37;;;;;;;;;;;;;;;1.40;100.00;96127.25;5118461;28;19924;-73
2023/01/16 08:11:35;;;;;;;;;;;;;;;1.61;100.00;96119.31;5118258;28;19920;-74
2023/01/16 08:13:51;;;;;;;;;;;;;;;1.56;100.00;96119.28;5117837;28;19924;-73
2023/01/16 08:16:17;;;;;;;;;;;;;;;1.58;100.00;96117.19;5099728;28;20181;-73
2023/01/16 08:18:44;;;;;;;;;;;;;;;1.63;100.00;96113.81;5119605;28;19924;-73
2023/01/16 08:21:11;;;;;;;;;;;;;;;1.65;100.00;96101.19;5121371;28;19924;-73
2023/01/16 08:23:40;;;;;;;;;;;;;;;1.68;100.00;96095.44;5118788;28;20569;-73
2023/01/16 08:26:06;;;;;;;;;;;;;;;1.75;100.00;96085.50;5117280;28;19986;-73
2023/01/16 08:28:33;;;;;;;;;;;;;;;1.74;100.00;96081.28;5099672;28;19920;-73
2023/01/16 08:31:03;;;;;;;;;;;;;;;1.77;100.00;96075.50;5120529;28;20554;-73
2023/01/16 08:33:30;;;;;;;;;;;;;;;1.80;100.00;96072.38;5119443;28;19934;-73
2023/01/16 08:35:58;;;;;;;;;;;;;;;1.83;100.00;96068.44;5098589;28;19951;-73
2023/01/16 08:38:26;;;;;;;;;;;;;;;1.85;100.00;96054.00;5116698;28;19927;-74
2023/01/16 08:40:52;;;;;;;;;;;;;;;1.87;100.00;96037.94;5116720;28;19977;-73
2023/01/16 08:51:31;;;;;;;;;;;;;;;2.06;100.00;96023.31;5118772;28;20260;-73
2023/01/16 08:53:59;;;;;;;;;;;;;;;2.10;100.00;96006.75;5097991;28;19931;-72
2023/01/16 08:56:25;;;;;;;;;;;;;;;2.02;100.00;96004.63;5116706;28;19953;-72
2023/01/16 08:58:52;;;;;;;;;;;;;;;2.17;100.00;95999.41;5120268;28;19924;-72
2023/01/16 09:01:19;;;;;;;;;;;;;;;2.16;100.00;95999.69;5119652;28;19928;-72
2023/01/16 09:03:45;;;;;;;;;;;;;;;2.09;100.00;96007.81;5116812;28;19928;-72
2023/01/16 09:06:12;;;;;;;;;;;;;;;2.08;100.00;95990.44;5098400;28;19924;-72
2023/01/16 09:08:38;;;;;;;;;;;;;;;2.20;100.00;95984.19;5115891;28;19923;-72
2023/01/16 09:13:50;;;;;;;;;;;;;;;2.25;100.00;95989.47;5115656;28;19951;-72
2023/01/16 09:16:19;;;;;;;;;;;;;;;2.23;100.00;95981.81;5097642;28;19924;-72
2023/01/16 09:18:47;;;;;;;;;;;;;;;2.28;100.00;95981.84;5118435;28;19924;-72
2023/01/16 09:21:13;;;;;;;;;;;;;;;2.32;100.00;95974.97;5119682;28;19950;-72
2023/01/16 09:23:40;;;;;;;;;;;;;;;2.31;100.00;95977.88;5117238;28;20024;-71
2023/01/16 09:26:07;;;;;;;;;;;;;;;2.35;100.00;95969.22;5116089;28;20015;-73
2023/01/16 09:28:34;;;;;;;;;;;;;;;2.32;100.00;95966.31;5117086;28;19929;-72
2023/01/16 09:31:00;;;;;;;;;;;;;;;2.41;100.00;95962.13;5119174;28;19966;-72
2023/01/16 09:33:27;;;;;;;;;;;;;;;2.33;100.00;95954.72;5118855;28;19970;-73
2023/01/16 09:35:53;;;;;;;;;;;;;;;2.55;100.00;95952.69;5115689;28;19951;-73
2023/01/16 09:38:20;;;;;;;;;;;;;;;2.50;100.00;95945.56;5115026;28;19969;-73
2023/01/16 09:40:49;;;;;;;;;;;;;;;2.55;100.00;95936.88;5115985;28;19981;-73
2023/01/16 09:43:38;;;;;;;;;;;;;;;2.60;100.00;95929.00;5096885;28;19939;-73
2023/01/16 09:46:11;;;;;;;;;;;;;;;2.66;100.00;95912.16;5115330;28;20400;-73
2023/01/16 09:48:39;;;;;;;;;;;;;;;2.64;100.00;95899.22;5098694;28;19960;-73
2023/01/16 09:51:07;;;;;;;;;;;;;;;2.81;100.00;95893.72;5118722;28;19970;-73
2023/01/16 09:59:17;;;;;;;;;;;;;;;2.93;100.00;95856.53;5115145;28;19963;-72
2023/01/16 10:01:46;;;;;;;;;;;;;;;3.00;100.00;95838.63;5118001;28;19931;-72
2023/01/16 10:04:16;;;;;;;;;;;;;;;3.14;100.00;95834.38;5100563;28;19934;-74
2023/01/16 10:06:47;;;;;;;;;;;;;;;3.16;100.00;95819.06;5115004;28;19962;-72
2023/01/16 10:09:17;;;;;;;;;;;;;;;3.24;100.00;95806.16;5115314;28;19982;-70
2023/01/16 10:11:48;;;;;;;;;;;;;;;3.18;100.00;95809.06;5117995;28;19924;-71
2023/01/16 10:14:29;;;;;;;;;;;;;;;3.30;100.00;95809.56;5118543;28;19939;-70
2023/01/16 10:17:02;;;;;;;;;;;;;;;3.36;100.00;95805.84;5105890;28;19932;-71
2023/01/16 10:19:41;;;;;;;;;;;;;;;3.41;100.00;95802.38;5105951;28;20438;-71
2023/01/16 10:22:13;;;;;;;;;;;;;;;3.47;100.00;95782.84;5096177;28;19920;-73
2023/01/16 10:24:46;;;;;;;;;;;;;;;3.47;100.00;95782.84;5105929;28;19924;-73
2023/01/16 10:27:17;;;;;;;;;;;;;;;3.45;100.00;95766.50;5106144;28;19920;-73
2023/01/16 10:29:48;;;;;;;;;;;;;;;3.60;100.00;95761.16;5106873;28;19924;-73
2023/01/16 10:32:19;;;;;;;;;;;;;;;3.65;100.00;95750.59;5117769;28;19924;-74
2023/01/16 10:34:52;;;;;;;;;;;;;;;3.67;100.00;95737.91;5098974;28;19967;-73
2023/01/16 10:37:20;;;;;;;;;;;;;;;3.68;100.00;95731.59;5092313;28;19931;-73
2023/01/16 10:39:49;;;;;;;;;;;;;;;3.75;100.00;95718.84;5117425;28;20636;-73
2023/01/16 10:50:41;;;;;;;;;;;;;;;4.03;100.00;95691.75;5098183;28;19996;-73
2023/01/16 10:53:09;;;;;;;;;;;;;;;4.07;100.00;95690.13;5117811;28;19927;-73
2023/01/16 10:55:36;;;;;;;;;;;;;;;4.18;100.00;95675.78;5098063;28;19924;-73
2023/01/16 10:58:05;;;;;;;;;;;;;;;4.23;100.00;95667.03;5114421;28;19952;-72
2023/01/16 11:00:35;;;;;;;;;;;;;;;4.32;100.00;95668.00;5115113;28;19923;-72
2023/01/16 11:03:02;;;;;;;;;;;;;;;4.26;100.00;95648.00;5099940;28;20637;-72
2023/01/16 11:05:30;;;;;;;;;;;;;;;4.26;100.00;95627.66;5099221;28;19928;-73
2023/01/16 11:08:02;;;;;;;;;;;;;;;4.32;100.00;95636.31;5110269;28;19950;-71
2023/01/16 11:10:29;;;;;;;;;;;;;;;4.35;100.00;95623.34;5098701;28;19928;-72
2023/01/16 11:18:43;;;;;;;;;;;;;;;4.52;100.00;95585.13;5114968;28;19920;-72
2023/01/16 11:21:15;;;;;;;;;;;;;;;4.69;100.00;95580.16;5113753;28;19924;-72
2023/01/16 11:23:43;;;;;;;;;;;;;;;4.74;100.00;95578.25;5116202;28;19991;-73
2023/01/16 11:26:10;;;;;;;;;;;;;;;4.73;100.00;95560.03;5117126;28;19924;-74
2023/01/16 11:28:37;;;;;;;;;;;;;;;4.78;100.00;95573.19;5115588;28;19930;-73
2023/01/16 11:31:08;;;;;;;;;;;;;;;4.85;100.00;95553.28;5095678;28;19931;-74
2023/01/16 11:33:35;;;;;;;;;;;;;;;4.86;100.00;95538.16;5115364;28;19924;-73
2023/01/16 11:36:03;;;;;;;;;;;;;;;5.01;100.00;95540.66;5101796;28;19940;-73
2023/01/16 11:38:30;;;;;;;;;;;;;;;4.98;100.00;95535.94;5113981;28;19927;-74
2023/01/16 11:40:58;;;;;;;;;;;;;;;5.01;100.00;95530.06;5095852;28;19946;-73
2023/01/16 11:46:26;;;;;;;;;;;;;;;5.01;100.00;95516.84;5118717;28;19931;-73
2023/01/16 11:48:53;;;;;;;;;;;;;;;5.06;100.00;95490.31;5114254;28;19924;-73
2023/01/16 11:51:21;;;;;;;;;;;;;;;5.14;100.00;95494.94;5096565;28;19971;-73
2023/01/16 11:53:49;;;;;;;;;;;;;;;5.12;100.00;95483.09;5099802;28;19919;-73
2023/01/16 11:56:24;;;;;;;;;;;;;;;5.14;100.00;95473.00;5121646;28;20152;-73
2023/01/16 11:59:06;;;;;;;;;;;;;;;5.11;100.00;95476.22;5109680;28;19924;-73
2023/01/16 12:02:15;;;;;;;;;;;;;;;5.13;100.00;95453.72;5109110;28;19930;-73
2023/01/16 12:04:25;;;;;;;;;;;;;;;5.17;100.00;95444.09;5108984;28;19924;-74
2023/01/16 12:06:56;;;;;;;;;;;;;;;5.23;100.00;95448.25;5117326;28;19931;-74
2023/01/16 12:09:40;;;;;;;;;;;;;;;5.24;100.00;95431.31;5117655;28;19967;-74
2023/01/16 12:14:56;;;;;;;;;;;;;;;5.26;100.00;95423.84;5117323;28;19974;-72
2023/01/16 12:17:30;;;;;;;;;;;;;;;5.33;100.00;95420.84;5117426;28;19920;-72
2023/01/16 12:20:11;;;;;;;;;;;;;;;5.34;100.00;95407.34;5100610;28;19924;-72
2023/01/16 12:22:49;;;;;;;;;;;;;;;5.33;100.00;95404.97;5118896;28;19928;-72
2023/01/16 12:25:22;;;;;;;;;;;;;;;5.30;100.00;95403.69;5120893;28;19927;-73
2023/01/16 12:27:52;;;;;;;;;;;;;;;5.27;100.00;95382.31;5099420;28;19924;-72
2023/01/16 12:30:24;;;;;;;;;;;;;;;5.26;100.00;95378.88;5117208;28;19935;-72
2023/01/16 12:32:59;;;;;;;;;;;;;;;5.29;100.00;95357.13;5108909;28;20010;-72
2023/01/16 12:35:32;;;;;;;;;;;;;;;5.35;100.00;95337.44;5116035;28;19934;-72
2023/01/16 12:38:04;;;;;;;;;;;;;;;5.45;100.00;95326.69;5094823;28;19919;-72
2023/01/16 12:40:38;;;;;;;;;;;;;;;5.49;100.00;95318.94;5119359;28;19966;-72
2023/01/16 12:43:20;;;;;;;;;;;;;;;5.59;100.00;95307.38;5098544;28;19987;-75
2023/01/16 12:45:49;;;;;;;;;;;;;;;5.60;100.00;95285.13;5119747;28;19991;-74
2023/01/16 12:48:28;;;;;;;;;;;;;;;5.72;100.00;95286.22;5101566;28;19924;-72
2023/01/16 12:51:03;;;;;;;;;;;;;;;5.72;100.00;95266.88;5116401;28;19924;-72
2023/01/16 12:53:39;;;;;;;;;;;;;;;5.76;100.00;95238.72;5116834;28;19958;-72
2023/01/16 12:56:15;;;;;;;;;;;;;;;5.85;100.00;95247.53;5119916;28;20445;-73
2023/01/16 12:58:44;;;;;;;;;;;;;;;5.78;100.00;95239.22;5099343;28;19935;-72
2023/01/16 13:01:13;;;;;;;;;;;;;;;5.80;100.00;95229.09;5116518;28;19956;-72
2023/01/16 13:03:46;;;;;;;;;;;;;;;5.91;100.00;95222.56;5118428;28;19924;-73
2023/01/16 13:06:15;;;;;;;;;;;;;;;5.92;100.00;95237.34;5102490;28;19924;-72
2023/01/16 13:08:45;;;;;;;;;;;;;;;5.94;100.00;95240.50;5116304;28;19983;-72
2023/01/16 13:13:58;;;;;;;;;;;;;;;6.03;100.00;95259.91;5116354;28;19930;-73
2023/01/16 13:16:28;;;;;;;;;;;;;;;5.86;100.00;95271.09;5116314;28;19924;-73
2023/01/16 13:18:57;;;;;;;;;;;;;;;5.93;100.00;95268.06;5101275;28;20617;-73
2023/01/16 13:21:27;;;;;;;;;;;;;;;5.97;100.00;95267.16;5119413;28;19924;-73
2023/01/16 13:23:55;;;;;;;;;;;;;;;5.93;100.00;95268.84;5114701;28;19924;-75
2023/01/16 13:26:22;;;;;;;;;;;;;;;6.02;100.00;95263.63;5115986;28;19920;-73
2023/01/16 13:28:51;;;;;;;;;;;;;;;6.03;100.00;95265.19;5100967;28;19935;-73
2023/01/16 13:31:26;;;;;;;;;;;;;;;5.95;100.00;95271.19;5119501;28;20183;-73
2023/01/16 13:33:56;;;;;;;;;;;;;;;6.01;100.00;95272.63;5115745;28;19920;-73
2023/01/16 13:36:40;;;;;;;;;;;;;;;6.04;100.00;95282.63;5115859;28;19924;-73
2023/01/16 13:39:23;;;;;;;;;;;;;;;6.04;100.00;95282.63;5108401;28;19984;-73
2023/01/16 13:41:52;;;;;;;;;;;;;;;6.00;100.00;95284.34;5119475;28;19923;-74
2023/01/16 13:47:06;;;;;;;;;;;;;;;6.08;100.00;95283.63;5116411;28;19924;-73
2023/01/16 13:49:33;;;;;;;;;;;;;;;6.09;100.00;95284.41;5098567;28;20012;-74
2023/01/16 13:52:01;;;;;;;;;;;;;;;6.11;100.00;95285.69;5134808;27;19973;-74